Time;durP1;ratioP1;P1;durP2;ratioP2;P2;SDS_P1;SDS_P2;PMS_P1;PMS_P2;Temp;Humidity;BMP_temperature;BMP_pressure;BME280_temperature;BME280_humidity;BME280_pressure;Samples;Min_cycle;Max_cycle;Signal;HPM_P1;HPM_P2
2023/02/10 00:01:49;;;;;;;1.07;1.07;;;-4.50;81.10;;;;;;5004726;28;20713;-74
2023/02/10 00:04:14;;;;;;;0.27;0.27;;;-4.60;81.10;;;;;;5004948;28;20185;-74
2023/02/10 00:06:40;;;;;;;1.77;1.67;;;-4.60;81.00;;;;;;5004730;28;20212;-74
2023/02/10 00:09:06;;;;;;;0.70;0.70;;;-4.60;81.10;;;;;;5004898;28;20642;-74
2023/02/10 00:14:17;;;;;;;1.80;0.93;;;-4.60;81.10;;;;;;5009155;28;20218;-74
2023/02/10 00:16:43;;;;;;;0.67;0.67;;;-4.60;81.10;;;;;;5012028;28;20665;-74
2023/02/10 00:19:09;;;;;;;2.17;1.60;;;-4.70;81.40;;;;;;5017689;28;20223;-74
2023/02/10 00:21:35;;;;;;;0.40;0.40;;;-4.70;81.20;;;;;;5005636;28;20196;-74
2023/02/10 00:24:01;;;;;;;3.30;0.83;;;-4.70;81.00;;;;;;5016687;28;20263;-75
2023/02/10 00:26:26;;;;;;;1.17;0.83;;;-4.70;80.70;;;;;;5003326;28;20197;-74
2023/02/10 00:28:52;;;;;;;1.10;1.10;;;-4.70;80.50;;;;;;5002578;28;20274;-74
2023/02/10 00:31:19;;;;;;;0.70;0.70;;;-4.70;80.80;;;;;;5003746;28;20607;-74
2023/02/10 00:33:45;;;;;;;1.60;1.53;;;-4.70;80.90;;;;;;5018991;28;20849;-74
2023/02/10 00:36:13;;;;;;;1.70;1.70;;;-4.70;81.10;;;;;;4996244;28;20178;-74
2023/02/10 00:38:39;;;;;;;1.57;1.50;;;-4.70;81.00;;;;;;5008690;28;20662;-74
2023/02/10 00:41:11;;;;;;;1.87;1.67;;;-4.80;81.20;;;;;;5006727;28;20194;-74
2023/02/10 00:43:39;;;;;;;1.10;1.03;;;-4.80;81.20;;;;;;5011825;28;20198;-74
2023/02/10 00:46:04;;;;;;;0.93;0.80;;;-4.80;80.90;;;;;;5007250;28;20275;-74
2023/02/10 00:48:31;;;;;;;1.43;0.80;;;-4.80;80.90;;;;;;4999604;28;20836;-74
2023/02/10 00:50:56;;;;;;;0.93;0.93;;;-4.80;81.00;;;;;;5009454;28;20589;-74
2023/02/10 00:53:22;;;;;;;1.07;0.87;;;-4.80;81.00;;;;;;5011809;28;20185;-74
2023/02/10 00:55:48;;;;;;;1.20;1.07;;;-4.80;81.00;;;;;;5012040;28;20265;-74
2023/02/10 00:58:13;;;;;;;1.20;1.20;;;-4.80;81.00;;;;;;5019839;28;20199;-74
2023/02/10 01:00:39;;;;;;;1.40;1.07;;;-4.80;81.00;;;;;;5010571;28;20281;-74
2023/02/10 01:03:05;;;;;;;3.90;0.63;;;-4.80;80.90;;;;;;5006675;28;20291;-75
2023/02/10 01:05:30;;;;;;;0.57;0.57;;;-4.80;80.90;;;;;;5004422;28;20227;-75
2023/02/10 01:07:56;;;;;;;0.30;0.30;;;-4.90;80.90;;;;;;5021661;28;20220;-75
2023/02/10 01:10:21;;;;;;;0.50;0.50;;;-4.90;80.80;;;;;;5005220;28;21113;-75
2023/02/10 01:12:47;;;;;;;0.60;0.60;;;-4.90;80.80;;;;;;5006109;28;20187;-74
2023/02/10 01:15:13;;;;;;;1.80;0.53;;;-4.90;80.60;;;;;;5015284;28;20784;-74
2023/02/10 01:17:39;;;;;;;0.57;0.57;;;-4.90;80.60;;;;;;5015056;28;20218;-74
2023/02/10 01:20:06;;;;;;;1.80;0.93;;;-4.90;80.50;;;;;;5022840;28;20269;-74
2023/02/10 01:22:33;;;;;;;1.00;1.00;;;-4.90;80.60;;;;;;5014743;28;20195;-74
2023/02/10 01:24:59;;;;;;;11.70;0.70;;;-4.90;80.50;;;;;;5006266;28;20179;-74
2023/02/10 01:27:24;;;;;;;0.80;0.80;;;-4.90;80.50;;;;;;5015273;28;20228;-74
2023/02/10 01:29:50;;;;;;;1.37;0.70;;;-5.00;80.50;;;;;;5011868;28;20191;-74
2023/02/10 01:32:16;;;;;;;0.60;0.60;;;-4.90;80.50;;;;;;5002424;28;20224;-74
2023/02/10 01:34:42;;;;;;;1.03;0.97;;;-5.00;80.60;;;;;;5006253;28;20594;-74
2023/02/10 01:37:07;;;;;;;1.17;1.17;;;-5.00;80.60;;;;;;5007878;28;20191;-76
2023/02/10 01:39:33;;;;;;;0.33;0.33;;;-5.00;80.60;;;;;;5017542;28;20202;-74
2023/02/10 01:41:59;;;;;;;0.60;0.60;;;-5.00;80.60;;;;;;5016089;28;20187;-74
2023/02/10 01:44:24;;;;;;;0.90;0.90;;;-5.00;80.60;;;;;;5006639;28;20217;-74
2023/02/10 01:46:50;;;;;;;0.40;0.40;;;-5.00;80.70;;;;;;5012965;28;20249;-74
2023/02/10 01:49:23;;;;;;;0.27;0.27;;;-5.00;80.60;;;;;;5010399;28;20199;-74
2023/02/10 01:51:59;;;;;;;0.73;0.30;;;-5.10;80.60;;;;;;5009130;28;20207;-75
2023/02/10 01:54:43;;;;;;;0.80;0.80;;;-5.10;80.50;;;;;;5010468;28;20281;-76
2023/02/10 01:57:08;;;;;;;0.30;0.30;;;-5.10;80.30;;;;;;5036869;28;20225;-75
2023/02/10 01:59:38;;;;;;;0.67;0.67;;;-5.10;80.20;;;;;;5004929;28;20228;-74
2023/02/10 02:02:06;;;;;;;0.40;0.40;;;-5.10;80.20;;;;;;5006594;28;20181;-75
2023/02/10 02:04:58;;;;;;;0.63;0.63;;;-5.10;79.90;;;;;;5022700;28;20609;-74
2023/02/10 02:07:27;;;;;;;0.50;0.50;;;-5.10;79.90;;;;;;5003139;28;20300;-74
2023/02/10 02:09:55;;;;;;;0.33;0.33;;;-5.10;79.90;;;;;;5011920;28;20191;-76
2023/02/10 02:12:36;;;;;;;0.47;0.47;;;-5.20;79.90;;;;;;5005633;28;20192;-75
2023/02/10 02:15:02;;;;;;;0.77;0.47;;;-5.20;79.90;;;;;;5008244;28;20237;-75
2023/02/10 02:17:51;;;;;;;0.20;0.20;;;-5.20;79.80;;;;;;5004419;28;20183;-75
2023/02/10 02:20:55;;;;;;;0.87;0.70;;;-5.20;79.80;;;;;;4995635;28;20566;-75
2023/02/10 02:23:27;;;;;;;0.30;0.30;;;-5.10;79.60;;;;;;4998693;28;20178;-75
2023/02/10 02:26:01;;;;;;;0.10;0.10;;;-5.20;79.60;;;;;;5002869;28;20181;-75
2023/02/10 02:28:33;;;;;;;0.33;0.33;;;-5.20;79.90;;;;;;5002050;28;20260;-75
2023/02/10 02:31:02;;;;;;;0.97;0.70;;;-5.20;80.00;;;;;;5005583;28;20605;-74
2023/02/10 02:33:42;;;;;;;0.87;0.87;;;-5.20;80.30;;;;;;5002317;28;20321;-75
2023/02/10 02:36:12;;;;;;;1.40;0.60;;;-5.30;80.70;;;;;;5006424;28;20225;-75
2023/02/10 02:38:40;;;;;;;0.30;0.30;;;-5.30;80.80;;;;;;5003903;28;20195;-75
2023/02/10 02:41:05;;;;;;;1.77;0.87;;;-5.30;80.70;;;;;;5005255;28;20195;-75
2023/02/10 02:43:31;;;;;;;1.13;1.10;;;-5.30;80.40;;;;;;5008762;28;20185;-75
2023/02/10 02:46:46;;;;;;;0.57;0.57;;;-5.30;80.10;;;;;;5013975;28;20923;-74
2023/02/10 02:49:25;;;;;;;0.37;0.37;;;-5.30;79.80;;;;;;5007389;28;20339;-74
2023/02/10 02:52:00;;;;;;;0.47;0.47;;;-5.40;79.90;;;;;;5006520;28;20214;-75
2023/02/10 02:54:41;;;;;;;1.90;0.60;;;-5.40;79.90;;;;;;5011764;28;20194;-74
2023/02/10 02:57:33;;;;;;;1.03;0.67;;;-5.40;79.80;;;;;;5002474;28;20836;-74
2023/02/10 03:00:09;;;;;;;5.93;0.87;;;-5.50;80.00;;;;;;5008608;28;20207;-75
2023/02/10 03:02:37;;;;;;;0.63;0.50;;;-5.60;80.10;;;;;;5005134;28;20782;-74
2023/02/10 03:05:03;;;;;;;2.10;0.63;;;-5.60;79.80;;;;;;5014163;28;20241;-74
2023/02/10 03:07:29;;;;;;;3.60;0.70;;;-5.70;80.20;;;;;;5004371;28;20225;-74
2023/02/10 03:09:54;;;;;;;1.37;0.47;;;-5.80;80.20;;;;;;5003591;28;20193;-75
2023/02/10 03:12:20;;;;;;;0.33;0.33;;;-5.80;80.20;;;;;;5009073;28;20250;-75
2023/02/10 03:14:46;;;;;;;0.83;0.83;;;-5.90;80.40;;;;;;5005034;28;20248;-74
2023/02/10 03:17:11;;;;;;;0.20;0.20;;;-5.90;80.50;;;;;;5013978;28;20234;-74
2023/02/10 03:19:37;;;;;;;0.10;0.10;;;-6.00;80.80;;;;;;5010248;28;20565;-74
2023/02/10 03:22:03;;;;;;;1.37;0.50;;;-6.00;81.70;;;;;;5007748;28;20184;-75
2023/02/10 03:24:29;;;;;;;2.20;1.10;;;-6.00;81.70;;;;;;5004267;28;20663;-74
2023/02/10 03:26:54;;;;;;;0.10;0.10;;;-6.10;81.30;;;;;;5008010;28;20284;-75
2023/02/10 03:29:20;;;;;;;0.20;0.20;;;-6.10;81.50;;;;;;5004822;28;20183;-74
2023/02/10 03:31:46;;;;;;;0.47;0.47;;;-6.10;82.10;;;;;;5015341;28;20578;-73
2023/02/10 03:34:11;;;;;;;0.47;0.47;;;-6.10;82.50;;;;;;5004962;28;20770;-74
2023/02/10 03:36:37;;;;;;;0.30;0.30;;;-6.20;82.70;;;;;;5010284;28;20271;-74
2023/02/10 03:39:04;;;;;;;0.20;0.20;;;-6.20;82.80;;;;;;5004649;28;20305;-74
2023/02/10 03:41:29;;;;;;;0.73;0.60;;;-6.20;82.90;;;;;;5003704;28;20185;-74
2023/02/10 03:43:55;;;;;;;2.47;0.37;;;-6.20;82.90;;;;;;5003972;28;20754;-74
2023/02/10 03:46:21;;;;;;;0.10;0.10;;;-6.20;82.90;;;;;;5004815;28;20223;-75
2023/02/10 03:48:47;;;;;;;0.10;0.10;;;-6.20;82.90;;;;;;5012812;28;20201;-74
2023/02/10 03:51:13;;;;;;;0.30;0.30;;;-6.20;82.90;;;;;;5005864;28;20227;-73
2023/02/10 03:53:39;;;;;;;0.23;0.23;;;-6.20;82.90;;;;;;5007162;28;20232;-74
2023/02/10 03:56:05;;;;;;;0.10;0.10;;;-6.20;83.00;;;;;;5002723;28;20178;-74
2023/02/10 03:58:31;;;;;;;0.60;0.27;;;-6.20;83.00;;;;;;5000144;28;20273;-74
2023/02/10 04:00:57;;;;;;;0.10;0.10;;;-6.20;83.00;;;;;;4999760;28;20203;-74
2023/02/10 04:03:22;;;;;;;0.67;0.50;;;-6.20;82.90;;;;;;5012526;28;20235;-74
2023/02/10 04:05:48;;;;;;;1.07;0.40;;;-6.20;82.90;;;;;;5008274;28;20200;-75
2023/02/10 04:08:14;;;;;;;1.73;0.20;;;-6.20;83.00;;;;;;5016157;28;20905;-74
2023/02/10 04:10:40;;;;;;;0.10;0.10;;;-6.20;83.00;;;;;;5007281;28;20192;-74
2023/02/10 04:13:05;;;;;;;0.30;0.30;;;-6.20;83.00;;;;;;5011531;28;20643;-74
2023/02/10 04:15:31;;;;;;;1.90;0.50;;;-6.20;82.90;;;;;;5007172;28;20209;-74
2023/02/10 04:17:57;;;;;;;0.30;0.30;;;-6.20;83.00;;;;;;5014155;28;20263;-74
2023/02/10 04:20:23;;;;;;;0.20;0.20;;;-6.20;83.20;;;;;;5011157;28;20177;-75
2023/02/10 04:22:49;;;;;;;0.50;0.50;;;-6.30;83.10;;;;;;5005403;28;20724;-74
2023/02/10 04:25:15;;;;;;;0.10;0.10;;;-6.30;83.30;;;;;;5008471;28;20190;-74
2023/02/10 04:27:40;;;;;;;0.53;0.53;;;-6.30;83.30;;;;;;5011019;28;20213;-74
2023/02/10 04:30:07;;;;;;;0.33;0.33;;;-6.30;83.50;;;;;;5009990;28;20266;-74
2023/02/10 04:32:32;;;;;;;1.07;0.70;;;-6.30;83.60;;;;;;5008989;28;20567;-72
2023/02/10 04:34:58;;;;;;;0.10;0.10;;;-6.30;83.70;;;;;;5011368;28;20194;-74
2023/02/10 04:37:24;;;;;;;0.10;0.10;;;-6.30;83.90;;;;;;5006625;28;20227;-75
2023/02/10 04:39:49;;;;;;;0.40;0.40;;;-6.30;83.50;;;;;;5002516;28;22007;-75
2023/02/10 04:42:15;;;;;;;0.47;0.47;;;-6.30;83.60;;;;;;5008377;28;20200;-73
2023/02/10 04:44:40;;;;;;;0.60;0.30;;;-6.30;83.50;;;;;;5006692;28;20190;-74
2023/02/10 04:47:06;;;;;;;0.87;0.87;;;-6.30;83.30;;;;;;5006968;28;21215;-73
2023/02/10 04:49:32;;;;;;;0.20;0.20;;;-6.30;83.50;;;;;;5007689;28;20215;-76
2023/02/10 04:51:57;;;;;;;0.60;0.60;;;-6.30;83.60;;;;;;5006047;28;20192;-74
2023/02/10 04:54:23;;;;;;;1.03;0.70;;;-6.30;83.90;;;;;;5010142;28;20192;-74
2023/02/10 04:56:49;;;;;;;0.20;0.20;;;-6.40;84.00;;;;;;5009364;28;20749;-75
2023/02/10 04:59:15;;;;;;;0.60;0.57;;;-6.40;84.10;;;;;;5015342;28;20196;-75
2023/02/10 05:01:41;;;;;;;0.37;0.37;;;-6.30;84.10;;;;;;5010178;28;20187;-75
2023/02/10 05:04:06;;;;;;;3.90;1.37;;;-6.40;83.90;;;;;;5006811;28;20572;-76
2023/02/10 05:06:32;;;;;;;0.70;0.70;;;-6.40;83.70;;;;;;5007219;28;20175;-76
2023/02/10 05:08:57;;;;;;;0.50;0.50;;;-6.40;83.70;;;;;;5006327;28;20271;-76
2023/02/10 05:11:23;;;;;;;0.30;0.30;;;-6.40;83.50;;;;;;5009672;28;20333;-77
2023/02/10 05:13:49;;;;;;;0.30;0.30;;;-6.40;83.20;;;;;;5019143;28;20551;-77
2023/02/10 05:16:16;;;;;;;0.40;0.40;;;-6.40;83.20;;;;;;5013498;28;20215;-77
2023/02/10 05:18:42;;;;;;;0.37;0.37;;;-6.40;83.20;;;;;;5012260;28;20188;-76
2023/02/10 05:21:09;;;;;;;0.33;0.30;;;-6.40;83.10;;;;;;5009913;28;20937;-75
2023/02/10 05:23:35;;;;;;;0.10;0.10;;;-6.40;83.10;;;;;;5011526;28;20185;-76
2023/02/10 05:26:02;;;;;;;0.10;0.10;;;-6.40;83.10;;;;;;5008006;28;20620;-74
2023/02/10 05:28:27;;;;;;;0.53;0.53;;;-6.40;83.20;;;;;;5006380;28;20213;-74
2023/02/10 05:30:53;;;;;;;0.80;0.80;;;-6.40;83.30;;;;;;5008526;28;20248;-74
2023/02/10 05:33:19;;;;;;;0.30;0.30;;;-6.30;83.50;;;;;;5008543;28;20934;-74
2023/02/10 05:35:45;;;;;;;0.30;0.30;;;-6.30;83.50;;;;;;5005584;28;20200;-74
2023/02/10 05:38:10;;;;;;;0.20;0.20;;;-6.30;83.70;;;;;;5008610;28;20185;-74
2023/02/10 05:40:36;;;;;;;0.73;0.73;;;-6.30;83.80;;;;;;5012092;28;20196;-74
2023/02/10 05:43:02;;;;;;;0.90;0.50;;;-6.30;83.70;;;;;;5008377;28;20184;-74
2023/02/10 05:45:28;;;;;;;0.20;0.13;;;-6.30;83.70;;;;;;5011714;28;20182;-75
2023/02/10 05:47:54;;;;;;;0.43;0.43;;;-6.30;83.30;;;;;;5006807;28;20218;-76
2023/02/10 05:50:20;;;;;;;0.83;0.80;;;-6.30;83.00;;;;;;5005579;28;20234;-78
2023/02/10 05:52:46;;;;;;;0.20;0.10;;;-6.20;83.00;;;;;;5012998;28;20253;-76
2023/02/10 05:55:12;;;;;;;0.10;0.10;;;-6.20;83.20;;;;;;5017356;28;20198;-76
2023/02/10 05:57:38;;;;;;;0.50;0.50;;;-6.20;83.10;;;;;;5006644;28;20201;-74
2023/02/10 06:00:05;;;;;;;0.20;0.20;;;-6.20;83.10;;;;;;5006114;28;20205;-74
2023/02/10 06:02:31;;;;;;;0.40;0.40;;;-6.20;83.10;;;;;;5024028;28;20665;-73
2023/02/10 06:04:57;;;;;;;0.67;0.67;;;-6.20;83.30;;;;;;4996853;28;20202;-72
2023/02/10 06:07:23;;;;;;;0.20;0.20;;;-6.20;83.20;;;;;;5015807;28;20220;-72
2023/02/10 06:09:48;;;;;;;0.30;0.30;;;-6.20;83.10;;;;;;5007675;28;20622;-73
2023/02/10 06:12:14;;;;;;;0.23;0.23;;;-6.20;83.00;;;;;;5025255;28;20259;-72
2023/02/10 06:14:40;;;;;;;0.47;0.47;;;-6.20;82.80;;;;;;5020542;28;20188;-74
2023/02/10 06:17:09;;;;;;;0.10;0.10;;;-6.20;82.80;;;;;;5006324;28;20184;-73
2023/02/10 06:19:38;;;;;;;0.33;0.33;;;-6.10;82.60;;;;;;5006166;28;20185;-74
2023/02/10 06:22:06;;;;;;;0.13;0.13;;;-6.10;82.50;;;;;;5005900;28;20185;-72
2023/02/10 06:24:31;;;;;;;0.83;0.83;;;-6.10;82.50;;;;;;5000372;28;20184;-73
2023/02/10 06:26:57;;;;;;;0.30;0.30;;;-6.10;82.50;;;;;;5010698;28;20220;-73
2023/02/10 06:29:23;;;;;;;1.37;0.70;;;-6.00;82.60;;;;;;4998856;28;20180;-72
2023/02/10 06:31:49;;;;;;;0.17;0.17;;;-6.00;82.20;;;;;;4996439;28;20177;-73
2023/02/10 06:34:14;;;;;;;1.43;1.07;;;-6.00;82.50;;;;;;5006338;28;20219;-73
2023/02/10 06:36:40;;;;;;;0.27;0.27;;;-6.00;82.70;;;;;;5005958;28;20221;-74
2023/02/10 06:39:06;;;;;;;0.40;0.40;;;-5.90;82.30;;;;;;5005409;28;20240;-74
2023/02/10 06:41:32;;;;;;;0.40;0.40;;;-5.80;82.10;;;;;;5005639;28;20196;-73
2023/02/10 06:43:58;;;;;;;3.90;0.87;;;-5.80;82.10;;;;;;5004856;28;20694;-73
2023/02/10 06:46:24;;;;;;;4.73;0.60;;;-5.70;82.10;;;;;;5005465;28;20184;-74
2023/02/10 06:48:50;;;;;;;0.80;0.80;;;-5.60;81.90;;;;;;5018077;28;20265;-73
2023/02/10 06:51:15;;;;;;;0.23;0.23;;;-5.60;81.80;;;;;;5005520;28;20321;-73
2023/02/10 06:53:42;;;;;;;0.47;0.47;;;-5.50;81.50;;;;;;5005180;28;20193;-73
2023/02/10 06:56:08;;;;;;;1.00;0.90;;;-5.40;81.30;;;;;;5003784;28;20193;-74
2023/02/10 06:58:34;;;;;;;0.60;0.60;;;-5.30;81.40;;;;;;5008254;28;20264;-74
2023/02/10 07:01:00;;;;;;;1.13;0.47;;;-5.20;81.40;;;;;;5015220;28;20273;-74
2023/02/10 07:03:26;;;;;;;1.10;1.10;;;-5.10;81.30;;;;;;5005299;28;20649;-73
2023/02/10 07:05:52;;;;;;;1.00;1.00;;;-5.00;80.80;;;;;;5005131;28;20239;-74
2023/02/10 07:08:18;;;;;;;0.83;0.83;;;-4.80;80.90;;;;;;5004928;28;20269;-74
2023/02/10 07:10:43;;;;;;;0.97;0.97;;;-4.60;80.90;;;;;;5004597;28;20606;-74
2023/02/10 07:13:09;;;;;;;2.50;1.63;;;-4.20;80.40;;;;;;5004683;28;20251;-73
2023/02/10 07:15:35;;;;;;;0.37;0.37;;;-3.70;79.80;;;;;;5005275;28;20187;-73
2023/02/10 07:18:00;;;;;;;0.43;0.43;;;-3.10;77.60;;;;;;5005214;28;20183;-74
2023/02/10 07:20:26;;;;;;;5.27;1.23;;;-2.40;75.20;;;;;;5004694;28;20239;-74
2023/02/10 07:22:52;;;;;;;1.90;1.07;;;-1.90;73.20;;;;;;5004590;28;20173;-74
2023/02/10 07:25:19;;;;;;;1.93;1.30;;;-1.20;72.30;;;;;;5004870;28;20185;-74
2023/02/10 07:27:44;;;;;;;2.37;1.87;;;-0.80;70.20;;;;;;5004303;28;20232;-74
2023/02/10 07:30:11;;;;;;;3.30;2.30;;;-0.40;68.60;;;;;;5005533;28;20294;-74
2023/02/10 07:32:37;;;;;;;2.93;1.80;;;-0.10;68.00;;;;;;5004830;28;20177;-74
2023/02/10 07:35:03;;;;;;;1.90;1.80;;;0.40;67.70;;;;;;5004629;28;20196;-73
2023/02/10 07:37:29;;;;;;;1.83;1.77;;;1.00;67.40;;;;;;5004462;28;20188;-73
2023/02/10 07:39:55;;;;;;;3.90;2.67;;;1.70;66.20;;;;;;4995730;28;20912;-73
2023/02/10 07:42:21;;;;;;;4.23;3.10;;;2.50;65.30;;;;;;5001435;28;20205;-73
2023/02/10 07:44:48;;;;;;;7.37;3.73;;;3.30;63.60;;;;;;5008854;28;20185;-74
2023/02/10 07:47:13;;;;;;;4.47;3.37;;;3.90;60.20;;;;;;5008804;28;20208;-72
2023/02/10 07:49:39;;;;;;;4.27;3.87;;;4.20;58.60;;;;;;5008765;28;20181;-73
2023/02/10 07:52:05;;;;;;;5.13;4.00;;;4.40;58.70;;;;;;5008262;28;20252;-73
2023/02/10 07:54:30;;;;;;;6.40;5.27;;;5.00;59.70;;;;;;5008858;28;20268;-74
2023/02/10 07:56:56;;;;;;;6.40;4.77;;;5.60;57.30;;;;;;5011453;28;20176;-75
2023/02/10 07:59:22;;;;;;;10.87;4.80;;;6.10;55.30;;;;;;5018000;28;20207;-74
2023/02/10 08:01:48;;;;;;;8.17;5.37;;;6.70;55.20;;;;;;5008390;28;20181;-74
2023/02/10 08:04:13;;;;;;;8.73;5.23;;;7.40;56.30;;;;;;5008480;28;20185;-75
2023/02/10 08:06:39;;;;;;;7.47;5.20;;;8.00;54.30;;;;;;5008229;28;20180;-72
2023/02/10 08:09:06;;;;;;;7.97;6.33;;;7.80;52.10;;;;;;5008453;28;20181;-72
2023/02/10 08:11:32;;;;;;;13.67;6.63;;;8.20;52.50;;;;;;5008560;28;20201;-73
2023/02/10 08:13:57;;;;;;;15.17;6.93;;;8.70;52.70;;;;;;5008859;28;20604;-73
2023/02/10 08:16:23;;;;;;;10.80;7.77;;;9.30;51.50;;;;;;5008949;28;20181;-75
2023/02/10 08:18:49;;;;;;;16.87;8.10;;;9.80;50.90;;;;;;5008901;28;20885;-73
2023/02/10 08:21:14;;;;;;;16.43;8.53;;;9.90;48.50;;;;;;5008244;28;20221;-73
2023/02/10 08:23:40;;;;;;;16.40;7.53;;;10.10;48.00;;;;;;5008246;28;20197;-72
2023/02/10 08:26:09;;;;;;;12.10;7.65;;;10.20;48.20;;;;;;5007314;28;20188;-73
2023/02/10 08:28:36;;;;;;;15.48;8.15;;;10.40;48.30;;;;;;5006413;28;20201;-73
2023/02/10 08:31:03;;;;;;;14.70;8.35;;;10.10;47.20;;;;;;5009023;28;20181;-73
2023/02/10 08:33:30;;;;;;;14.93;8.40;;;9.70;48.10;;;;;;5007905;28;20262;-74
2023/02/10 08:35:56;;;;;;;14.00;8.57;;;9.80;48.60;;;;;;5005730;28;20781;-74
2023/02/10 08:38:21;;;;;;;13.30;7.38;;;10.10;47.80;;;;;;5008115;28;20238;-74
2023/02/10 08:40:54;;;;;;;18.83;8.43;;;10.30;47.60;;;;;;5007665;28;20267;-74
2023/02/10 08:43:20;;;;;;;14.02;7.90;;;10.20;47.90;;;;;;5008229;28;20177;-74
2023/02/10 08:45:46;;;;;;;12.75;7.75;;;10.20;47.00;;;;;;5007633;28;20342;-73
2023/02/10 08:48:11;;;;;;;14.05;7.32;;;10.40;46.70;;;;;;5007426;28;20213;-73
2023/02/10 08:50:37;;;;;;;12.40;8.23;;;10.90;47.20;;;;;;5007244;28;20232;-73
2023/02/10 08:53:03;;;;;;;15.85;7.90;;;11.50;46.10;;;;;;5006479;28;20184;-74
2023/02/10 08:55:28;;;;;;;17.67;8.07;;;11.70;45.70;;;;;;5012582;28;20218;-74
2023/02/10 08:57:54;;;;;;;11.68;7.88;;;11.90;45.50;;;;;;5025449;28;20199;-74
2023/02/10 09:00:20;;;;;;;13.90;7.00;;;12.30;45.90;;;;;;5020343;28;20197;-74
2023/02/10 09:02:49;;;;;;;12.48;7.90;;;12.50;45.50;;;;;;5007789;28;20185;-73
2023/02/10 09:05:14;;;;;;;13.27;8.65;;;12.90;46.20;;;;;;5011819;28;20177;-73
2023/02/10 09:07:40;;;;;;;17.83;9.23;;;13.20;44.60;;;;;;5015612;28;20729;-74
2023/02/10 09:10:10;;;;;;;18.23;9.45;;;13.50;44.60;;;;;;5024634;28;20642;-74
2023/02/10 09:12:36;;;;;;;17.30;9.30;;;13.70;44.50;;;;;;5026640;28;20263;-74
2023/02/10 09:15:02;;;;;;;14.70;9.27;;;14.10;44.30;;;;;;5019298;28;20216;-74
2023/02/10 09:17:27;;;;;;;15.15;8.90;;;14.60;44.40;;;;;;5007068;28;20191;-74
2023/02/10 09:19:53;;;;;;;18.48;9.02;;;15.00;43.80;;;;;;4999359;28;20184;-74
2023/02/10 09:22:19;;;;;;;19.10;10.27;;;15.50;43.80;;;;;;5014279;28;20685;-74
2023/02/10 09:24:47;;;;;;;16.30;10.52;;;16.00;43.80;;;;;;5006554;28;20192;-74
2023/02/10 09:27:13;;;;;;;18.05;10.55;;;16.20;41.80;;;;;;5017318;28;20702;-72
2023/02/10 09:29:39;;;;;;;21.05;12.48;;;15.40;41.20;;;;;;5007743;28;20177;-74
2023/02/10 09:32:04;;;;;;;16.52;10.20;;;15.20;41.50;;;;;;5007352;28;20185;-75
2023/02/10 09:34:31;;;;;;;18.45;11.15;;;15.00;42.80;;;;;;5004043;28;20260;-74
2023/02/10 09:37:00;;;;;;;17.63;9.48;;;14.70;43.00;;;;;;5007271;28;20177;-74
2023/02/10 09:39:27;;;;;;;14.40;8.88;;;14.90;43.10;;;;;;5005533;28;20169;-75
2023/02/10 09:41:55;;;;;;;14.38;9.52;;;15.30;41.80;;;;;;5007011;28;20181;-74
2023/02/10 09:44:26;;;;;;;14.05;9.13;;;15.90;42.90;;;;;;5021245;28;20181;-74
2023/02/10 09:47:16;;;;;;;17.13;10.05;;;16.60;40.70;;;;;;5009514;28;20201;-74
2023/02/10 09:50:13;;;;;;;16.85;10.00;;;16.60;41.50;;;;;;5004853;28;20204;-74
2023/02/10 09:53:13;;;;;;;12.63;9.20;;;17.10;40.90;;;;;;4994841;28;20184;-74
2023/02/10 09:55:59;;;;;;;16.92;10.35;;;16.70;40.10;;;;;;4983506;28;20240;-77
2023/02/10 09:58:48;;;;;;;16.02;9.57;;;16.50;42.20;;;;;;4983882;28;20300;-74
2023/02/10 10:01:22;;;;;;;14.45;9.85;;;16.90;41.30;;;;;;4987521;28;20585;-72
2023/02/10 10:03:54;;;;;;;15.50;10.25;;;17.20;40.90;;;;;;4984364;28;20177;-74
2023/02/10 10:06:28;;;;;;;14.05;9.00;;;17.60;40.90;;;;;;4983771;28;20193;-74
2023/02/10 10:09:01;;;;;;;13.80;9.95;;;17.80;39.70;;;;;;4983117;28;20382;-74
2023/02/10 10:11:38;;;;;;;18.67;9.75;;;17.70;39.40;;;;;;4985444;28;20216;-77
2023/02/10 10:14:05;;;;;;;15.27;9.30;;;17.30;39.80;;;;;;4982537;28;20627;-72
2023/02/10 10:16:52;;;;;;;13.77;9.13;;;17.10;39.00;;;;;;4983223;28;20186;-71
2023/02/10 10:19:27;;;;;;;12.68;8.85;;;16.90;39.70;;;;;;4989987;28;20200;-73
2023/02/10 10:22:12;;;;;;;14.50;9.30;;;16.80;39.30;;;;;;4991619;28;20189;-73
2023/02/10 10:24:55;;;;;;;15.38;10.18;;;16.90;40.50;;;;;;4986331;28;20185;-73
2023/02/10 10:27:33;;;;;;;18.27;10.32;;;16.90;40.40;;;;;;4980809;28;20236;-73
2023/02/10 10:30:30;;;;;;;12.25;9.00;;;16.90;38.60;;;;;;4987239;28;21641;-73
2023/02/10 10:33:02;;;;;;;17.55;8.85;;;16.80;38.60;;;;;;4965984;28;20228;-73
2023/02/10 10:35:39;;;;;;;16.83;9.38;;;16.90;39.70;;;;;;4965506;28;20212;-73
2023/02/10 10:38:15;;;;;;;11.85;8.80;;;16.50;39.00;;;;;;4975463;28;20236;-73
2023/02/10 10:40:43;;;;;;;15.80;9.60;;;16.30;39.70;;;;;;4981546;28;20196;-73
2023/02/10 10:43:17;;;;;;;19.67;11.07;;;16.20;40.70;;;;;;4980771;28;20748;-72
2023/02/10 10:45:48;;;;;;;18.08;10.32;;;15.90;40.20;;;;;;4975291;28;20325;-74
2023/02/10 10:48:27;;;;;;;15.63;10.13;;;15.70;40.70;;;;;;4981657;28;20287;-73
2023/02/10 10:50:55;;;;;;;16.92;11.02;;;15.70;40.50;;;;;;4975416;28;20586;-72
2023/02/10 10:53:30;;;;;;;18.70;11.40;;;15.80;40.90;;;;;;4983037;28;20252;-72
2023/02/10 10:55:56;;;;;;;19.80;10.55;;;16.00;39.90;;;;;;4983136;28;20690;-74
2023/02/10 10:58:33;;;;;;;17.42;11.15;;;16.00;40.00;;;;;;4982132;28;20285;-73
2023/02/10 11:01:01;;;;;;;20.38;10.82;;;16.00;40.80;;;;;;4981964;28;20348;-73
2023/02/10 11:03:27;;;;;;;15.52;10.77;;;16.40;41.50;;;;;;4981577;28;20186;-74
2023/02/10 11:06:17;;;;;;;20.08;11.40;;;16.80;40.10;;;;;;4993967;28;20192;-73
2023/02/10 11:08:44;;;;;;;19.38;11.07;;;16.90;39.10;;;;;;4982422;28;20221;-73
2023/02/10 11:11:14;;;;;;;14.70;9.98;;;16.80;40.10;;;;;;5005125;28;20181;-74
2023/02/10 11:13:49;;;;;;;17.38;10.27;;;16.60;39.90;;;;;;5008053;28;20184;-74
2023/02/10 11:16:16;;;;;;;18.02;11.35;;;16.60;39.40;;;;;;5003674;28;20185;-74
2023/02/10 11:18:56;;;;;;;19.67;11.00;;;16.80;39.60;;;;;;5004587;28;20595;-74
2023/02/10 11:21:36;;;;;;;20.75;11.77;;;16.80;39.80;;;;;;5003882;28;20257;-72
2023/02/10 11:24:03;;;;;;;15.02;10.27;;;16.90;39.50;;;;;;5005753;28;20180;-73
2023/02/10 11:26:29;;;;;;;18.42;10.88;;;16.90;39.20;;;;;;4995296;28;20271;-73
2023/02/10 11:28:55;;;;;;;16.15;10.52;;;16.50;38.70;;;;;;5005524;28;21179;-73
2023/02/10 11:31:21;;;;;;;16.92;9.70;;;16.40;40.00;;;;;;4997692;28;20979;-73
2023/02/10 11:34:01;;;;;;;13.95;9.95;;;16.50;39.20;;;;;;5005567;28;20212;-74
2023/02/10 11:36:35;;;;;;;19.05;10.00;;;16.50;39.70;;;;;;5004509;28;20189;-73
2023/02/10 11:39:14;;;;;;;16.60;9.98;;;16.50;40.30;;;;;;5005243;28;20181;-73
2023/02/10 11:41:40;;;;;;;24.92;10.82;;;16.10;38.90;;;;;;5007842;28;20194;-73
2023/02/10 11:44:31;;;;;;;17.20;10.52;;;15.90;38.40;;;;;;5006522;28;20189;-71
2023/02/10 11:47:16;;;;;;;14.55;9.75;;;16.00;39.30;;;;;;5004282;28;20239;-72
2023/02/10 11:49:47;;;;;;;16.88;10.45;;;16.00;39.90;;;;;;5006681;28;20188;-72
2023/02/10 11:52:13;;;;;;;20.40;9.50;;;16.20;38.80;;;;;;4992459;28;20264;-73
2023/02/10 11:54:41;;;;;;;15.80;10.10;;;16.40;39.70;;;;;;5001765;28;20256;-73
2023/02/10 12:00:45;;;;;;;14.98;9.93;;;17.00;38.90;;;;;;4992538;28;20643;-73
2023/02/10 12:03:11;;;;;;;22.50;9.75;;;17.30;38.60;;;;;;5005617;28;20191;-73
2023/02/10 12:06:05;;;;;;;15.52;9.68;;;17.60;39.70;;;;;;5024400;28;20176;-72
2023/02/10 12:09:02;;;;;;;21.38;10.20;;;17.90;38.70;;;;;;5004596;28;20205;-73
2023/02/10 12:11:56;;;;;;;12.68;9.00;;;18.10;39.70;;;;;;5003609;28;20199;-73
2023/02/10 12:14:30;;;;;;;15.52;9.32;;;18.40;37.40;;;;;;5001485;28;20670;-73
2023/02/10 12:17:27;;;;;;;15.73;9.38;;;18.50;37.70;;;;;;4996384;28;20695;-72
2023/02/10 12:20:11;;;;;;;15.88;9.80;;;18.20;36.90;;;;;;5003618;28;20585;-74
2023/02/10 12:22:49;;;;;;;11.73;9.35;;;17.50;37.20;;;;;;5004238;28;20662;-72
2023/02/10 12:25:42;;;;;;;15.40;10.05;;;17.60;37.70;;;;;;5011918;28;20216;-73
2023/02/10 12:28:39;;;;;;;17.17;9.55;;;17.80;38.10;;;;;;4997864;28;20301;-72
2023/02/10 12:31:27;;;;;;;15.20;9.40;;;18.00;38.40;;;;;;5008562;28;20247;-73
2023/02/10 12:34:04;;;;;;;15.18;9.57;;;18.30;39.10;;;;;;4996487;28;20229;-73
2023/02/10 12:37:00;;;;;;;14.57;9.40;;;18.40;38.40;;;;;;4984953;28;20272;-74
2023/02/10 12:39:40;;;;;;;15.73;9.50;;;18.60;37.50;;;;;;4983908;28;20201;-73
2023/02/10 12:42:24;;;;;;;13.35;9.27;;;18.60;38.30;;;;;;4984732;28;20193;-73
2023/02/10 12:45:18;;;;;;;14.27;9.57;;;18.40;37.40;;;;;;4984890;28;20193;-73
2023/02/10 12:47:46;;;;;;;12.85;9.48;;;18.10;36.60;;;;;;4985938;28;20225;-73
2023/02/10 12:50:25;;;;;;;12.80;9.40;;;18.10;38.80;;;;;;4985121;28;20205;-73
2023/02/10 12:53:08;;;;;;;12.60;9.18;;;17.80;37.50;;;;;;4984568;28;20213;-73
2023/02/10 12:55:33;;;;;;;21.13;10.10;;;17.40;36.80;;;;;;4985269;28;20258;-72
2023/02/10 12:58:04;;;;;;;15.80;11.10;;;16.80;38.30;;;;;;4977078;28;20682;-73
2023/02/10 13:01:17;;;;;;;16.10;9.55;;;16.70;38.40;;;;;;4972269;28;20804;-73
2023/02/10 13:03:47;;;;;;;14.75;9.32;;;16.80;38.00;;;;;;4965124;28;20757;-73